Terminal Aerodrome Forecast
Issued by NWS

Home | Current Version | Previous Version | Text Only | Print | Product List | Glossary On
Versions: 1 2 3 4 5 6 7 8 9 10 11 12 13 14 15 16 17 18 19 20 21 22 23
326
FTUS43 KIND 010212 AAA
TAFLAF
TAF AMD
KLAF 010212Z 0102/0124 13008KT P6SM SHRA VCTS OVC050CB
      WS020/18040KT
     FM010400 15015G24KT 6SM SHRA VCTS OVC040CB
     FM010500 18015G23KT 5SM SHRA VCTS OVC020CB
     FM010700 21014KT P6SM VCSH BKN045
     FM010900 20013KT P6SM SCT045
     FM011800 22020G32KT P6SM BKN030
      AMD LTD TO CLD VIS AND WIND TIL 011300=

USA.gov is the U.S. government's official web portal to all federal, state and local government web resources and services.